Manitouwadge, Canada
Current Conditions -  °F | °C
As of 10:00 PM on Saturday 25 Oct 2014 (Local Time) from CYGQ Reporting Station
Overcast Overcast  
Wind Chill: 35°   Ceiling: 4000
Heat Index: 43°   Visibility: 10mi
Dew Point: 30°   Wind: 17mph
Humidity: 61%   Direction: 310°NW
Pressure: 29.7"   Gusts: 28mph
Location:  49.13°N, 85.8°W
Report Text: CYGQ 260200Z 31015G24KT 10SM OVC040 06/M01 A2970 RMK SC8SLP068
Loading
Personal Weather Stations






























Interactive Weather Map
Tropical Storm Tracking
New forecast layout! Learn more

10-Day Weather Forecast

Advertisements
Track Severe Weather on mobile